createdAt,value
2023-06-17T00:00:23.023Z,997.55
2023-06-17T00:01:22.860Z,997.53
2023-06-17T00:02:23.054Z,997.52
2023-06-17T00:03:22.815Z,997.48
2023-06-17T00:04:22.731Z,997.49
2023-06-17T00:05:22.665Z,997.47
2023-06-17T00:06:23.927Z,997.50
2023-06-17T00:07:22.974Z,997.45
2023-06-17T00:08:22.656Z,997.47
2023-06-17T00:09:22.998Z,997.43
2023-06-17T00:10:22.745Z,997.47
2023-06-17T00:11:22.615Z,997.47
2023-06-17T00:12:22.619Z,997.46
2023-06-17T00:13:22.618Z,997.46
2023-06-17T00:14:23.572Z,997.51
2023-06-17T00:15:22.588Z,997.47
2023-06-17T00:16:22.533Z,997.51
2023-06-17T00:17:22.619Z,997.53
2023-06-17T00:18:22.549Z,997.50
2023-06-17T00:19:22.510Z,997.49
2023-06-17T00:20:22.773Z,997.49
2023-06-17T00:21:22.495Z,997.47
2023-06-17T00:22:22.528Z,997.48
2023-06-17T00:23:22.554Z,997.41
2023-06-17T00:24:22.522Z,997.43
2023-06-17T00:25:22.495Z,997.37
2023-06-17T00:26:22.417Z,997.38
2023-06-17T00:27:22.430Z,997.38
2023-06-17T00:28:22.389Z,997.40
2023-06-17T00:29:22.406Z,997.40
2023-06-17T00:30:22.707Z,997.37
2023-06-17T00:31:22.361Z,997.35
2023-06-17T00:32:22.409Z,997.34
2023-06-17T00:33:22.355Z,997.33
2023-06-17T00:34:22.328Z,997.30
2023-06-17T00:35:22.302Z,997.33
2023-06-17T00:36:22.323Z,997.32
2023-06-17T00:37:22.295Z,997.38
2023-06-17T00:38:22.308Z,997.38
2023-06-17T00:39:22.262Z,997.36
2023-06-17T00:40:22.547Z,997.39
2023-06-17T00:41:22.315Z,997.41
2023-06-17T00:42:22.235Z,997.40
2023-06-17T00:43:22.253Z,997.40
2023-06-17T00:44:22.275Z,997.38
2023-06-17T00:45:22.195Z,997.36
2023-06-17T00:46:22.211Z,997.37
2023-06-17T00:47:22.222Z,997.36
2023-06-17T00:48:22.232Z,997.35
2023-06-17T00:49:22.166Z,997.38
2023-06-17T00:50:22.371Z,997.38
2023-06-17T00:51:22.153Z,997.35
2023-06-17T00:52:40.316Z,997.39
2023-06-17T00:53:23.103Z,997.36
2023-06-17T00:54:22.130Z,997.37
2023-06-17T00:55:23.642Z,997.39
2023-06-17T00:56:22.126Z,997.40
2023-06-17T00:57:22.073Z,997.38
2023-06-17T00:58:22.057Z,997.41
2023-06-17T00:59:22.043Z,997.38
2023-06-17T01:00:22.315Z,997.40
2023-06-17T01:01:22.060Z,997.39
2023-06-17T01:02:22.016Z,997.45
2023-06-17T01:03:22.146Z,997.43
2023-06-17T01:04:22.009Z,997.47
2023-06-17T01:05:21.997Z,997.43
2023-06-17T01:06:21.956Z,997.42
2023-06-17T01:07:21.976Z,997.40
2023-06-17T01:08:21.964Z,997.42
2023-06-17T01:09:21.931Z,997.43
2023-06-17T01:10:22.220Z,997.41
2023-06-17T01:11:21.916Z,997.35
2023-06-17T01:12:21.890Z,997.38
2023-06-17T01:13:21.860Z,997.36
2023-06-17T01:14:21.892Z,997.35
2023-06-17T01:15:21.867Z,997.31
2023-06-17T01:16:21.910Z,997.32
2023-06-17T01:17:21.865Z,997.32
2023-06-17T01:18:21.852Z,997.28
2023-06-17T01:19:21.800Z,997.28
2023-06-17T01:20:22.101Z,997.30
2023-06-17T01:21:21.797Z,997.28
2023-06-17T01:22:21.806Z,997.25
2023-06-17T01:23:21.777Z,997.20
2023-06-17T01:24:21.808Z,997.27
2023-06-17T01:25:21.838Z,997.25
2023-06-17T01:26:21.748Z,997.20
2023-06-17T01:27:21.833Z,997.23
2023-06-17T01:28:21.890Z,997.25
2023-06-17T01:29:21.698Z,997.17
2023-06-17T01:30:21.899Z,997.18
2023-06-17T01:31:21.750Z,997.19
2023-06-17T01:32:21.698Z,997.18
2023-06-17T01:33:21.676Z,997.12
2023-06-17T01:34:21.621Z,997.18
2023-06-17T01:35:21.647Z,997.14
2023-06-17T01:36:21.648Z,997.20
2023-06-17T01:37:21.592Z,997.18
2023-06-17T01:38:21.583Z,997.20
2023-06-17T01:39:21.561Z,997.18
2023-06-17T01:40:22.015Z,997.16
2023-06-17T01:41:21.589Z,997.20
2023-06-17T01:42:21.549Z,997.22
2023-06-17T01:43:21.545Z,997.20
2023-06-17T01:44:21.557Z,997.18
2023-06-17T01:45:21.535Z,997.20
2023-06-17T01:46:21.520Z,997.21
2023-06-17T01:47:21.505Z,997.20
2023-06-17T01:48:21.469Z,997.24
2023-06-17T01:49:21.512Z,997.19
2023-06-17T01:50:21.684Z,997.19
2023-06-17T01:51:21.459Z,997.20
2023-06-17T01:52:21.409Z,997.20
2023-06-17T01:53:21.408Z,997.29
2023-06-17T01:54:21.428Z,997.19
2023-06-17T01:55:21.405Z,997.20
2023-06-17T01:56:21.450Z,997.16
2023-06-17T01:57:21.347Z,997.19
2023-06-17T01:58:21.343Z,997.18
2023-06-17T01:59:21.327Z,997.22
2023-06-17T02:00:21.636Z,997.19
2023-06-17T02:01:21.305Z,997.17
2023-06-17T02:02:21.342Z,997.16
2023-06-17T02:03:21.451Z,997.16
2023-06-17T02:04:21.316Z,997.12
2023-06-17T02:05:21.365Z,997.14
2023-06-17T02:06:21.284Z,997.14
2023-06-17T02:07:21.260Z,997.14
2023-06-17T02:08:21.270Z,997.15
2023-06-17T02:09:21.251Z,997.14
2023-06-17T02:10:21.523Z,997.16
2023-06-17T02:11:21.205Z,997.12
2023-06-17T02:12:21.188Z,997.17
2023-06-17T02:13:21.246Z,997.09
2023-06-17T02:14:21.161Z,997.13
2023-06-17T02:15:21.168Z,997.11
2023-06-17T02:16:21.259Z,997.14
2023-06-17T02:17:21.125Z,997.11
2023-06-17T02:18:21.134Z,997.07
2023-06-17T02:19:21.131Z,997.10
2023-06-17T02:20:21.423Z,997.03
2023-06-17T02:21:21.118Z,997.04
2023-06-17T02:22:21.107Z,997.08
2023-06-17T02:23:21.144Z,997.11
2023-06-17T02:24:21.099Z,997.08
2023-06-17T02:25:21.090Z,997.05
2023-06-17T02:26:21.113Z,997.07
2023-06-17T02:27:21.027Z,997.05
2023-06-17T02:28:21.000Z,997.07
2023-06-17T02:29:21.063Z,997.01
2023-06-17T02:30:21.274Z,997.03
2023-06-17T02:31:21.015Z,997.04
2023-06-17T02:32:20.965Z,997.05
2023-06-17T02:33:20.952Z,997.06
2023-06-17T02:34:20.928Z,997.06
2023-06-17T02:35:21.000Z,997.12
2023-06-17T02:36:20.911Z,997.09
2023-06-17T02:37:20.893Z,997.04
2023-06-17T02:38:20.893Z,997.10
2023-06-17T02:39:20.916Z,997.09
2023-06-17T02:40:21.131Z,997.08
2023-06-17T02:41:20.873Z,997.11
2023-06-17T02:42:20.855Z,997.09
2023-06-17T02:43:20.852Z,997.07
2023-06-17T02:44:20.808Z,997.05
2023-06-17T02:45:20.847Z,997.07
2023-06-17T02:46:20.876Z,997.03
2023-06-17T02:47:20.804Z,997.02
2023-06-17T02:48:20.794Z,997.00
2023-06-17T02:49:20.763Z,997.01
2023-06-17T02:50:21.078Z,997.03
2023-06-17T02:51:20.747Z,997.01
2023-06-17T02:52:20.768Z,997.01
2023-06-17T02:53:20.757Z,997.02
2023-06-17T02:54:20.697Z,996.98
2023-06-17T02:55:20.730Z,996.98
2023-06-17T02:56:20.689Z,996.94
2023-06-17T02:57:20.677Z,996.95
2023-06-17T02:58:20.683Z,996.92
2023-06-17T02:59:20.635Z,996.94
2023-06-17T03:00:20.854Z,996.98
2023-06-17T03:01:20.692Z,996.95
2023-06-17T03:02:20.680Z,997.00
2023-06-17T03:03:20.665Z,997.01
2023-06-17T03:04:20.601Z,997.02
2023-06-17T03:05:20.612Z,997.03
2023-06-17T03:06:20.569Z,997.03
2023-06-17T03:07:20.594Z,997.02
2023-06-17T03:08:20.568Z,997.01
2023-06-17T03:09:20.537Z,997.05
2023-06-17T03:10:20.846Z,997.03
2023-06-17T03:11:20.521Z,997.04
2023-06-17T03:12:20.565Z,997.12
2023-06-17T03:13:20.474Z,997.07
2023-06-17T03:14:20.661Z,997.10
2023-06-17T03:15:20.536Z,997.06
2023-06-17T03:16:20.447Z,997.07
2023-06-17T03:17:20.459Z,997.03
2023-06-17T03:18:20.831Z,997.00
2023-06-17T03:19:20.430Z,997.02
2023-06-17T03:20:20.836Z,997.04
2023-06-17T03:21:20.377Z,997.01
2023-06-17T03:22:20.428Z,997.04
2023-06-17T03:23:20.381Z,997.03
2023-06-17T03:24:20.412Z,997.04
2023-06-17T03:25:20.386Z,997.09
2023-06-17T03:26:20.333Z,997.07
2023-06-17T03:27:20.343Z,997.06
2023-06-17T03:28:20.343Z,997.04
2023-06-17T03:29:20.308Z,997.10
2023-06-17T03:30:20.521Z,997.12
2023-06-17T03:31:20.362Z,997.07
2023-06-17T03:32:20.267Z,997.12
2023-06-17T03:33:20.253Z,997.10
2023-06-17T03:34:20.268Z,997.12
2023-06-17T03:35:20.216Z,997.03
2023-06-17T03:36:20.270Z,997.00
2023-06-17T03:37:20.211Z,996.95
2023-06-17T03:38:20.195Z,996.91
2023-06-17T03:39:20.226Z,996.88
2023-06-17T03:40:20.390Z,996.90
2023-06-17T03:41:20.160Z,996.93
2023-06-17T03:42:20.199Z,996.88
2023-06-17T03:43:20.155Z,996.90
2023-06-17T03:44:20.149Z,996.90
2023-06-17T03:45:20.124Z,996.87
2023-06-17T03:46:20.114Z,996.86
2023-06-17T03:47:20.119Z,996.82
2023-06-17T03:48:20.099Z,996.85
2023-06-17T03:49:20.152Z,996.87
2023-06-17T03:50:20.439Z,996.86
2023-06-17T03:51:20.062Z,996.87
2023-06-17T03:52:20.067Z,996.89
2023-06-17T03:53:20.041Z,996.92
2023-06-17T03:54:20.055Z,996.96
2023-06-17T03:55:20.056Z,996.99
2023-06-17T03:56:20.044Z,996.95
2023-06-17T03:57:19.997Z,996.94
2023-06-17T03:58:19.979Z,996.97
2023-06-17T03:59:21.033Z,996.93
2023-06-17T04:00:20.247Z,996.91
2023-06-17T04:01:20.018Z,996.92
2023-06-17T04:02:20.017Z,996.93
2023-06-17T04:03:20.029Z,996.88
2023-06-17T04:04:19.919Z,996.89
2023-06-17T04:05:19.902Z,996.91
2023-06-17T04:06:19.880Z,996.91
2023-06-17T04:07:19.852Z,996.89
2023-06-17T04:08:19.866Z,996.88
2023-06-17T04:09:19.843Z,996.93
2023-06-17T04:10:19.869Z,996.90
2023-06-17T04:11:19.805Z,996.90
2023-06-17T04:12:19.806Z,996.93
2023-06-17T04:13:19.862Z,996.94
2023-06-17T04:14:19.805Z,996.95
2023-06-17T04:15:19.758Z,996.98
2023-06-17T04:16:19.767Z,997.00
2023-06-17T04:17:19.751Z,996.95
2023-06-17T04:18:19.842Z,997.00
2023-06-17T04:19:19.763Z,997.02
2023-06-17T04:20:19.883Z,996.99
2023-06-17T04:21:19.725Z,997.02
2023-06-17T04:22:19.724Z,996.94
2023-06-17T04:23:19.922Z,996.97
2023-06-17T04:25:29.857Z,996.94
2023-06-17T04:26:29.812Z,997.00
2023-06-17T04:27:29.861Z,996.98
2023-06-17T04:28:29.803Z,996.97
2023-06-17T04:29:29.788Z,997.00
2023-06-17T04:30:29.792Z,997.01
2023-06-17T04:31:29.798Z,997.02
2023-06-17T04:32:29.777Z,996.99
2023-06-17T04:33:29.780Z,996.98
2023-06-17T04:34:29.750Z,996.99
2023-06-17T04:35:29.764Z,996.97
2023-06-17T04:36:29.696Z,996.96
2023-06-17T04:37:29.682Z,996.98
2023-06-17T04:38:29.732Z,996.97
2023-06-17T04:39:29.692Z,996.98
2023-06-17T04:40:29.651Z,997.02
2023-06-17T04:41:29.695Z,997.05
2023-06-17T04:42:29.636Z,997.04
2023-06-17T04:43:29.642Z,997.03
2023-06-17T04:44:29.605Z,997.02
2023-06-17T04:45:29.671Z,997.07
2023-06-17T04:46:29.656Z,997.03
2023-06-17T04:47:29.649Z,997.05
2023-06-17T04:48:29.567Z,997.06
2023-06-17T04:49:29.565Z,997.06
2023-06-17T04:50:29.576Z,997.05
2023-06-17T04:51:29.676Z,997.11
2023-06-17T04:52:29.541Z,997.05
2023-06-17T04:53:29.522Z,997.03
2023-06-17T04:54:29.541Z,997.03
2023-06-17T04:55:29.490Z,997.01
2023-06-17T04:56:29.477Z,997.04
2023-06-17T04:57:29.494Z,997.06
2023-06-17T04:58:29.493Z,997.01
2023-06-17T04:59:29.439Z,997.03
2023-06-17T05:00:29.441Z,997.07
2023-06-17T05:01:29.530Z,997.08
2023-06-17T05:02:29.482Z,997.07
2023-06-17T05:03:29.405Z,997.16
2023-06-17T05:04:29.391Z,997.09
2023-06-17T05:05:29.386Z,997.10
2023-06-17T05:06:29.369Z,997.09
2023-06-17T05:07:29.381Z,997.05
2023-06-17T05:08:29.342Z,997.04
2023-06-17T05:09:29.373Z,997.02
2023-06-17T05:10:29.330Z,997.04
2023-06-17T05:11:29.351Z,997.06
2023-06-17T05:12:29.306Z,997.07
2023-06-17T05:13:29.275Z,997.05
2023-06-17T05:14:29.275Z,997.02
2023-06-17T05:15:29.286Z,997.06
2023-06-17T05:16:29.276Z,997.03
2023-06-17T05:17:29.290Z,997.05
2023-06-17T05:18:29.218Z,997.05
2023-06-17T05:19:29.208Z,997.06
2023-06-17T05:20:29.228Z,997.04
2023-06-17T05:21:29.185Z,997.06
2023-06-17T05:22:29.214Z,997.03
2023-06-17T05:23:29.191Z,997.06
2023-06-17T05:24:29.247Z,997.04
2023-06-17T05:25:29.360Z,997.03
2023-06-17T05:26:29.139Z,997.04
2023-06-17T05:27:29.135Z,997.05
2023-06-17T05:28:29.110Z,997.03
2023-06-17T05:29:29.103Z,997.06
2023-06-17T05:30:29.155Z,997.05
2023-06-17T05:31:29.082Z,997.04
2023-06-17T05:32:29.093Z,997.05
2023-06-17T05:33:29.076Z,997.07
2023-06-17T05:34:29.044Z,997.05
2023-06-17T05:35:29.056Z,997.07
2023-06-17T05:36:29.042Z,997.04
2023-06-17T05:37:29.015Z,997.00
2023-06-17T05:38:29.046Z,996.96
2023-06-17T05:39:29.018Z,996.98
2023-06-17T05:40:28.978Z,997.02
2023-06-17T05:41:28.985Z,997.04
2023-06-17T05:42:28.955Z,997.02
2023-06-17T05:43:28.948Z,997.06
2023-06-17T05:44:28.977Z,997.03
2023-06-17T05:45:28.909Z,997.03
2023-06-17T05:46:28.954Z,997.08
2023-06-17T05:47:28.933Z,997.08
2023-06-17T05:48:28.888Z,997.05
2023-06-17T05:49:28.868Z,997.08
2023-06-17T05:50:28.863Z,997.08
2023-06-17T05:51:28.905Z,997.12
2023-06-17T05:52:28.815Z,997.13
2023-06-17T05:53:28.831Z,997.07
2023-06-17T05:54:28.820Z,997.05
2023-06-17T05:55:28.791Z,997.04
2023-06-17T05:56:28.811Z,997.03
2023-06-17T05:57:28.798Z,997.04
2023-06-17T05:58:28.787Z,996.98
2023-06-17T05:59:28.746Z,997.02
2023-06-17T06:00:28.739Z,997.03
2023-06-17T06:01:28.784Z,997.04
2023-06-17T06:02:28.773Z,996.93
2023-06-17T06:03:28.722Z,996.96
2023-06-17T06:04:28.701Z,997.02
2023-06-17T06:05:28.672Z,996.98
2023-06-17T06:06:28.704Z,997.00
2023-06-17T06:07:28.691Z,996.94
2023-06-17T06:08:28.666Z,996.97
2023-06-17T06:09:28.632Z,996.97
2023-06-17T06:10:28.702Z,997.00
2023-06-17T06:11:28.665Z,996.98
2023-06-17T06:12:28.642Z,996.99
2023-06-17T06:13:28.631Z,997.01
2023-06-17T06:14:28.573Z,997.01
2023-06-17T06:15:28.582Z,997.03
2023-06-17T06:16:28.592Z,997.02
2023-06-17T06:17:28.632Z,997.00
2023-06-17T06:18:28.529Z,997.01
2023-06-17T06:19:28.550Z,997.01
2023-06-17T06:20:28.613Z,996.98
2023-06-17T06:21:28.512Z,996.98
2023-06-17T06:22:28.508Z,996.99
2023-06-17T06:23:28.524Z,997.00
2023-06-17T06:24:28.523Z,996.98
2023-06-17T06:25:28.459Z,996.88
2023-06-17T06:26:28.479Z,996.93
2023-06-17T06:27:28.457Z,996.95
2023-06-17T06:28:28.492Z,996.98
2023-06-17T06:29:28.445Z,996.99
2023-06-17T06:30:28.417Z,996.90
2023-06-17T06:31:28.385Z,996.90
2023-06-17T06:32:28.462Z,996.93
2023-06-17T06:33:28.399Z,996.92
2023-06-17T06:34:28.424Z,996.87
2023-06-17T06:35:28.350Z,996.87
2023-06-17T06:36:28.328Z,996.88
2023-06-17T06:37:28.340Z,997.00
2023-06-17T06:38:28.349Z,997.01
2023-06-17T06:39:28.335Z,997.02
2023-06-17T06:40:28.421Z,996.99
2023-06-17T06:41:28.270Z,997.05
2023-06-17T06:42:28.286Z,997.07
2023-06-17T06:43:28.290Z,997.03
2023-06-17T06:44:28.308Z,997.01
2023-06-17T06:45:28.294Z,996.97
2023-06-17T06:46:28.375Z,997.01
2023-06-17T06:47:28.273Z,996.97
2023-06-17T06:48:28.235Z,996.98
2023-06-17T06:49:28.211Z,997.04
2023-06-17T06:50:28.255Z,996.99
2023-06-17T06:51:28.178Z,997.11
2023-06-17T06:52:28.176Z,997.06
2023-06-17T06:53:28.135Z,997.13
2023-06-17T06:54:28.164Z,997.07
2023-06-17T06:55:28.140Z,997.12
2023-06-17T06:56:28.165Z,997.16
2023-06-17T06:57:28.093Z,997.14
2023-06-17T06:58:28.101Z,997.17
2023-06-17T06:59:28.079Z,997.13
2023-06-17T07:00:28.073Z,997.24
2023-06-17T07:01:28.226Z,997.19
2023-06-17T07:02:28.092Z,997.13
2023-06-17T07:03:28.068Z,997.13
2023-06-17T07:04:28.140Z,997.12
2023-06-17T07:05:28.028Z,997.12
2023-06-17T07:06:28.012Z,997.13
2023-06-17T07:07:28.027Z,997.13
2023-06-17T07:08:27.975Z,997.11
2023-06-17T07:09:27.991Z,997.16
2023-06-17T07:10:27.952Z,997.13
2023-06-17T07:11:27.960Z,997.15
2023-06-17T07:12:27.942Z,997.12
2023-06-17T07:13:27.958Z,997.13
2023-06-17T07:14:27.946Z,997.10
2023-06-17T07:15:27.900Z,997.15
2023-06-17T07:16:27.953Z,997.07
2023-06-17T07:17:27.920Z,997.01
2023-06-17T07:18:27.891Z,996.99
2023-06-17T07:19:27.907Z,996.97
2023-06-17T07:20:27.864Z,996.98
2023-06-17T07:21:27.868Z,996.91
2023-06-17T07:22:27.849Z,996.97
2023-06-17T07:23:27.852Z,996.87
2023-06-17T07:24:27.861Z,996.96
2023-06-17T07:25:27.814Z,996.97
2023-06-17T07:26:27.850Z,996.97
2023-06-17T07:27:27.793Z,996.95
2023-06-17T07:28:27.767Z,996.92
2023-06-17T07:29:27.746Z,996.88
2023-06-17T07:30:27.796Z,996.86
2023-06-17T07:31:27.800Z,996.98
2023-06-17T07:32:27.834Z,996.81
2023-06-17T07:33:27.707Z,996.88
2023-06-17T07:34:27.696Z,996.89
2023-06-17T07:35:27.699Z,996.97
2023-06-17T07:36:27.742Z,996.84
2023-06-17T07:37:27.692Z,996.91
2023-06-17T07:38:27.668Z,996.87
2023-06-17T07:39:27.637Z,996.86
2023-06-17T07:40:27.633Z,996.98
2023-06-17T07:41:27.628Z,997.04
2023-06-17T07:42:27.649Z,996.96
2023-06-17T07:43:27.596Z,997.01
2023-06-17T07:44:27.622Z,997.04
2023-06-17T07:45:27.574Z,996.98
2023-06-17T07:46:27.714Z,997.01
2023-06-17T07:47:27.625Z,996.99
2023-06-17T07:48:27.556Z,996.97
2023-06-17T07:49:27.554Z,996.93
2023-06-17T07:50:27.544Z,996.96
2023-06-17T07:51:27.526Z,996.95
2023-06-17T07:52:27.527Z,996.95
2023-06-17T07:53:27.500Z,996.90
2023-06-17T07:54:27.557Z,996.92
2023-06-17T07:55:27.520Z,996.92
2023-06-17T07:56:27.482Z,996.89
2023-06-17T07:57:27.470Z,996.77
2023-06-17T07:58:27.444Z,996.77
2023-06-17T07:59:27.463Z,996.78
2023-06-17T08:00:27.461Z,996.78
2023-06-17T08:01:27.468Z,996.93
2023-06-17T08:02:27.566Z,996.78
2023-06-17T08:03:27.481Z,996.81
2023-06-17T08:04:27.390Z,996.94
2023-06-17T08:05:27.437Z,996.94
2023-06-17T08:06:27.404Z,996.92
2023-06-17T08:07:27.364Z,996.89
2023-06-17T08:08:27.351Z,996.78
2023-06-17T08:09:27.366Z,996.83
2023-06-17T08:10:27.339Z,996.74
2023-06-17T08:11:27.355Z,996.70
2023-06-17T08:12:27.308Z,996.71
2023-06-17T08:13:27.322Z,996.81
2023-06-17T08:14:27.296Z,996.82
2023-06-17T08:15:27.279Z,996.83
2023-06-17T08:16:27.339Z,996.88
2023-06-17T08:17:27.309Z,996.85
2023-06-17T08:18:27.278Z,996.85
2023-06-17T08:19:27.241Z,996.78
2023-06-17T08:20:27.219Z,996.76
2023-06-17T08:21:27.232Z,996.76
2023-06-17T08:22:27.229Z,996.73
2023-06-17T08:23:27.227Z,996.68
2023-06-17T08:24:27.228Z,996.67
2023-06-17T08:25:27.194Z,996.71
2023-06-17T08:26:27.172Z,996.71
2023-06-17T08:27:27.664Z,996.73
2023-06-17T08:28:27.147Z,996.68
2023-06-17T08:29:27.161Z,996.69
2023-06-17T08:30:27.155Z,996.60
2023-06-17T08:31:27.110Z,996.61
2023-06-17T08:32:27.133Z,996.58
2023-06-17T08:33:27.082Z,996.53
2023-06-17T08:34:27.110Z,996.42
2023-06-17T08:35:27.095Z,996.46
2023-06-17T08:36:27.118Z,996.44
2023-06-17T08:37:27.084Z,996.27
2023-06-17T08:38:27.049Z,996.28
2023-06-17T08:39:27.039Z,996.21
2023-06-17T08:40:27.018Z,996.27
2023-06-17T08:41:27.021Z,996.33
2023-06-17T08:42:27.012Z,996.34
2023-06-17T08:43:27.009Z,996.31
2023-06-17T08:44:26.981Z,996.25
2023-06-17T08:45:27.036Z,996.30
2023-06-17T08:46:27.045Z,996.21
2023-06-17T08:47:27.096Z,996.26
2023-06-17T08:48:26.956Z,996.28
2023-06-17T08:49:26.950Z,996.22
2023-06-17T08:50:26.960Z,996.25
2023-06-17T08:51:26.953Z,996.19
2023-06-17T08:52:26.938Z,996.16
2023-06-17T08:53:26.931Z,996.05
2023-06-17T08:54:26.882Z,996.17
2023-06-17T08:55:26.909Z,996.15
2023-06-17T08:56:26.892Z,996.09
2023-06-17T08:57:26.886Z,996.07
2023-06-17T08:58:26.906Z,996.02
2023-06-17T08:59:26.834Z,996.17
2023-06-17T09:00:26.851Z,996.18
2023-06-17T09:01:26.971Z,996.11
2023-06-17T09:02:26.861Z,996.16
2023-06-17T09:03:26.837Z,996.06
2023-06-17T09:04:26.844Z,996.11
2023-06-17T09:05:26.865Z,996.11
2023-06-17T09:06:26.774Z,996.13
2023-06-17T09:07:26.794Z,996.12
2023-06-17T09:08:26.772Z,996.10
2023-06-17T09:09:26.744Z,996.10
2023-06-17T09:10:26.752Z,996.17
2023-06-17T09:11:26.718Z,996.21
2023-06-17T09:12:26.747Z,996.10
2023-06-17T09:13:26.755Z,996.04
2023-06-17T09:14:26.702Z,996.06
2023-06-17T09:15:26.709Z,996.13
2023-06-17T09:16:26.744Z,996.05
2023-06-17T09:17:26.721Z,996.08
2023-06-17T09:18:26.673Z,996.06
2023-06-17T09:19:26.652Z,996.06
2023-06-17T09:20:26.691Z,996.17
2023-06-17T09:21:26.672Z,996.30
2023-06-17T09:22:26.669Z,996.18
2023-06-17T09:23:26.606Z,996.10
2023-06-17T09:24:26.630Z,996.17
2023-06-17T09:25:26.625Z,996.17
2023-06-17T09:26:26.593Z,996.24
2023-06-17T09:27:26.593Z,996.22
2023-06-17T09:28:26.604Z,996.29
2023-06-17T09:29:26.606Z,996.22
2023-06-17T09:30:26.551Z,996.26
2023-06-17T09:31:26.561Z,996.30
2023-06-17T09:32:26.623Z,996.33
2023-06-17T09:33:26.525Z,996.30
2023-06-17T09:34:26.496Z,996.33
2023-06-17T09:35:26.499Z,996.30
2023-06-17T09:36:26.473Z,996.37
2023-06-17T09:37:26.501Z,996.45
2023-06-17T09:38:26.501Z,996.33
2023-06-17T09:39:26.444Z,996.34
2023-06-17T09:40:26.429Z,996.38
2023-06-17T09:41:26.423Z,996.37
2023-06-17T09:42:26.425Z,996.33
2023-06-17T09:43:28.470Z,996.35
2023-06-17T09:44:26.424Z,996.37
2023-06-17T09:45:26.389Z,996.38
2023-06-17T09:46:26.503Z,996.40
2023-06-17T09:47:26.386Z,996.42
2023-06-17T09:48:26.354Z,996.42
2023-06-17T09:49:26.362Z,996.44
2023-06-17T09:50:26.413Z,996.45
2023-06-17T09:51:26.358Z,996.46
2023-06-17T09:52:26.298Z,996.47
2023-06-17T09:53:26.366Z,996.43
2023-06-17T09:54:26.304Z,996.42
2023-06-17T09:55:26.312Z,996.45
2023-06-17T09:56:26.268Z,996.46
2023-06-17T09:57:26.245Z,996.47
2023-06-17T09:58:26.256Z,996.50
2023-06-17T09:59:26.278Z,996.47
2023-06-17T10:00:26.375Z,996.49
2023-06-17T10:01:26.223Z,996.42
2023-06-17T10:02:26.203Z,996.46
2023-06-17T10:03:26.420Z,996.45
2023-06-17T10:04:26.196Z,996.39
2023-06-17T10:05:26.184Z,996.45
2023-06-17T10:06:26.165Z,996.46
2023-06-17T10:07:26.152Z,996.37
2023-06-17T10:08:26.169Z,996.42
2023-06-17T10:09:26.144Z,996.47
2023-06-17T10:10:26.125Z,996.44
2023-06-17T10:11:26.131Z,996.43
2023-06-17T10:12:26.090Z,996.45
2023-06-17T10:13:26.109Z,996.43
2023-06-17T10:14:26.132Z,996.41
2023-06-17T10:15:26.092Z,996.40
2023-06-17T10:16:26.072Z,996.40
2023-06-17T10:17:26.073Z,996.41
2023-06-17T10:18:26.044Z,996.41
2023-06-17T10:19:26.045Z,996.42
2023-06-17T10:20:26.215Z,996.39
2023-06-17T10:21:26.069Z,996.37
2023-06-17T10:22:26.009Z,996.40
2023-06-17T10:23:26.002Z,996.43
2023-06-17T10:24:26.086Z,996.44
2023-06-17T10:25:25.962Z,996.41
2023-06-17T10:26:25.952Z,996.42
2023-06-17T10:27:25.962Z,996.51
2023-06-17T10:28:25.988Z,996.47
2023-06-17T10:29:25.947Z,996.44
2023-06-17T10:30:25.942Z,996.44
2023-06-17T10:31:27.593Z,996.50
2023-06-17T10:32:26.044Z,996.45
2023-06-17T10:33:25.875Z,996.46
2023-06-17T10:34:25.946Z,996.45
2023-06-17T10:35:25.856Z,996.44
2023-06-17T10:36:25.891Z,996.46
2023-06-17T10:37:25.829Z,996.45
2023-06-17T10:38:25.804Z,996.52
2023-06-17T10:39:25.844Z,996.49
2023-06-17T10:40:26.175Z,996.45
2023-06-17T10:41:25.798Z,996.42
2023-06-17T10:42:25.793Z,996.49
2023-06-17T10:43:25.778Z,996.31
2023-06-17T10:44:25.765Z,996.28
2023-06-17T10:45:25.739Z,996.27
2023-06-17T10:46:25.833Z,996.19
2023-06-17T10:47:25.770Z,996.20
2023-06-17T10:48:25.771Z,996.20
2023-06-17T10:49:25.700Z,996.20
2023-06-17T10:50:25.692Z,996.16
2023-06-17T10:51:36.350Z,996.18
2023-06-17T10:52:26.668Z,996.17
2023-06-17T10:53:25.661Z,996.19
2023-06-17T10:54:25.696Z,996.15
2023-06-17T10:55:25.659Z,996.20
2023-06-17T10:56:25.612Z,996.21
2023-06-17T10:57:25.615Z,996.18
2023-06-17T10:58:25.653Z,996.13
2023-06-17T10:59:25.585Z,996.14
2023-06-17T11:00:25.573Z,996.12
2023-06-17T11:01:25.596Z,996.10
2023-06-17T11:02:25.609Z,996.09
2023-06-17T11:03:25.643Z,996.12
2023-06-17T11:04:25.594Z,996.15
2023-06-17T11:05:25.524Z,996.16
2023-06-17T11:06:25.534Z,996.14
2023-06-17T11:07:25.519Z,996.14
2023-06-17T11:08:25.494Z,996.19
2023-06-17T11:09:25.477Z,996.20
2023-06-17T11:10:25.674Z,996.34
2023-06-17T11:11:25.470Z,996.19
2023-06-17T11:12:25.457Z,996.21
2023-06-17T11:13:25.486Z,996.19
2023-06-17T11:14:25.429Z,996.23
2023-06-17T11:15:25.423Z,996.15
2023-06-17T11:16:25.437Z,996.18
2023-06-17T11:17:25.472Z,996.18
2023-06-17T11:18:25.411Z,996.14
2023-06-17T11:19:25.389Z,996.14
2023-06-17T11:20:25.376Z,996.08
2023-06-17T11:21:25.336Z,996.13
2023-06-17T11:22:25.342Z,996.13
2023-06-17T11:23:25.365Z,996.17
2023-06-17T11:24:25.363Z,996.08
2023-06-17T11:25:39.783Z,996.17
2023-06-17T11:26:26.305Z,996.21
2023-06-17T11:27:25.268Z,996.32
2023-06-17T11:28:25.283Z,996.24
2023-06-17T11:29:25.292Z,996.07
2023-06-17T11:30:25.258Z,996.08
2023-06-17T11:31:25.332Z,996.10
2023-06-17T11:32:25.252Z,996.10
2023-06-17T11:33:25.206Z,996.06
2023-06-17T11:34:25.224Z,996.24
2023-06-17T11:35:25.198Z,996.21
2023-06-17T11:36:25.222Z,996.19
2023-06-17T11:37:25.192Z,996.14
2023-06-17T11:38:25.197Z,996.14
2023-06-17T11:39:25.196Z,996.06
2023-06-17T11:40:25.135Z,996.05
2023-06-17T11:41:25.131Z,995.87
2023-06-17T11:42:25.150Z,995.86
2023-06-17T11:43:25.136Z,995.82
2023-06-17T11:44:25.092Z,995.84
2023-06-17T11:45:25.132Z,995.82
2023-06-17T11:46:25.115Z,995.77
2023-06-17T11:47:25.072Z,995.84
2023-06-17T11:48:25.082Z,995.79
2023-06-17T11:49:25.093Z,995.80
2023-06-17T11:50:25.041Z,995.74
2023-06-17T11:51:25.047Z,995.69
2023-06-17T11:52:25.059Z,995.71
2023-06-17T11:53:25.005Z,995.74
2023-06-17T11:54:25.038Z,995.72
2023-06-17T11:55:24.993Z,995.73
2023-06-17T11:56:24.972Z,995.73
2023-06-17T11:57:24.980Z,995.75
2023-06-17T11:58:24.943Z,995.76
2023-06-17T11:59:24.977Z,995.73
2023-06-17T12:00:24.948Z,995.69
2023-06-17T12:01:24.912Z,995.65
2023-06-17T12:02:25.010Z,995.58
2023-06-17T12:03:24.913Z,995.60
2023-06-17T12:04:24.942Z,995.57
2023-06-17T12:05:24.905Z,995.58
2023-06-17T12:06:24.898Z,995.65
2023-06-17T12:07:24.856Z,995.55
2023-06-17T12:08:24.848Z,995.63
2023-06-17T12:09:24.884Z,995.58
2023-06-17T12:10:24.968Z,995.57
2023-06-17T12:11:24.829Z,995.56
2023-06-17T12:12:24.826Z,995.54
2023-06-17T12:13:24.823Z,995.53
2023-06-17T12:14:24.802Z,995.55
2023-06-17T12:15:35.819Z,995.61
2023-06-17T12:16:25.793Z,995.61
2023-06-17T12:17:24.880Z,995.59
2023-06-17T12:18:24.728Z,995.53
2023-06-17T12:19:24.770Z,995.53
2023-06-17T12:20:24.716Z,995.51
2023-06-17T12:21:24.758Z,995.45
2023-06-17T12:22:24.696Z,995.47
2023-06-17T12:23:24.676Z,995.45
2023-06-17T12:24:24.720Z,995.44
2023-06-17T12:25:24.953Z,995.41
2023-06-17T12:26:24.654Z,995.44
2023-06-17T12:27:24.655Z,995.38
2023-06-17T12:28:24.732Z,995.35
2023-06-17T12:29:26.565Z,995.38